createdAt,value
2022-12-07T00:00:55.461Z,12.32
2022-12-07T00:03:21.933Z,12.75
2022-12-07T00:05:48.452Z,11.38
2022-12-07T00:08:14.860Z,11.90
2022-12-07T00:10:41.277Z,11.83
2022-12-07T00:13:07.738Z,12.32
2022-12-07T00:15:35.634Z,8.90
2022-12-07T00:18:02.042Z,12.93
2022-12-07T00:20:28.499Z,12.85
2022-12-07T00:22:54.883Z,12.00
2022-12-07T00:25:21.299Z,11.07
2022-12-07T00:27:47.711Z,10.52
2022-12-07T00:30:14.384Z,8.65
2022-12-07T00:32:40.785Z,12.50
2022-12-07T00:35:07.507Z,11.13
2022-12-07T00:37:33.888Z,12.52
2022-12-07T00:40:00.589Z,12.00
2022-12-07T00:42:27.206Z,6.65
2022-12-07T00:44:53.587Z,14.77
2022-12-07T00:47:19.963Z,9.00
2022-12-07T00:49:46.371Z,7.63
2022-12-07T00:52:12.765Z,10.32
2022-12-07T00:54:39.249Z,9.45
2022-12-07T00:57:05.648Z,7.78
2022-12-07T00:59:32.143Z,9.53
2022-12-07T01:01:58.623Z,6.65
2022-12-07T01:04:25.231Z,8.75
2022-12-07T01:06:51.623Z,8.68
2022-12-07T01:09:18.047Z,7.82
2022-12-07T01:11:44.457Z,8.20
2022-12-07T01:14:10.848Z,8.00
2022-12-07T01:16:37.427Z,8.05
2022-12-07T01:19:05.693Z,6.18
2022-12-07T01:21:36.441Z,11.23
2022-12-07T01:24:04.851Z,6.43
2022-12-07T01:26:31.513Z,9.60
2022-12-07T01:29:01.632Z,8.75
2022-12-07T01:31:29.137Z,8.23
2022-12-07T01:33:58.240Z,7.45
2022-12-07T01:36:36.033Z,7.33
2022-12-07T01:39:05.736Z,8.40
2022-12-07T01:41:35.410Z,7.75
2022-12-07T01:44:25.013Z,6.47
2022-12-07T01:46:56.949Z,6.38
2022-12-07T01:49:42.048Z,8.97
2022-12-07T01:52:19.234Z,7.07
2022-12-07T01:54:48.653Z,5.78
2022-12-07T01:57:16.781Z,8.52
2022-12-07T01:59:45.813Z,6.40
2022-12-07T02:02:19.811Z,5.87
2022-12-07T02:04:47.338Z,5.85
2022-12-07T02:07:14.093Z,4.78
2022-12-07T02:09:40.549Z,6.90
2022-12-07T02:12:07.310Z,5.88
2022-12-07T02:14:33.818Z,5.10
2022-12-07T02:17:22.197Z,6.45
2022-12-07T02:20:08.840Z,7.53
2022-12-07T02:23:00.076Z,8.80
2022-12-07T02:25:44.981Z,8.82
2022-12-07T02:28:27.971Z,5.10
2022-12-07T02:30:58.589Z,10.40
2022-12-07T02:33:34.764Z,8.30
2022-12-07T02:36:13.662Z,8.65
2022-12-07T02:38:53.059Z,6.18
2022-12-07T02:41:26.788Z,5.67
2022-12-07T02:43:56.639Z,7.15
2022-12-07T02:46:45.636Z,6.43
2022-12-07T02:49:12.543Z,9.52
2022-12-07T02:51:47.492Z,8.70
2022-12-07T02:54:16.622Z,5.60
2022-12-07T02:56:51.278Z,6.60
2022-12-07T02:59:29.882Z,6.75
2022-12-07T03:02:24.468Z,7.10
2022-12-07T03:05:05.769Z,7.90
2022-12-07T03:07:32.170Z,10.50
2022-12-07T03:10:25.239Z,8.57
2022-12-07T03:13:00.677Z,3.45
2022-12-07T03:15:34.930Z,7.75
2022-12-07T03:18:05.006Z,4.60
2022-12-07T03:20:33.869Z,9.37
2022-12-07T03:23:00.652Z,7.90
2022-12-07T03:25:28.245Z,7.22
2022-12-07T03:27:58.696Z,9.27
2022-12-07T03:30:32.795Z,7.28
2022-12-07T03:33:11.599Z,8.30
2022-12-07T03:35:50.363Z,8.73
2022-12-07T03:38:22.991Z,6.65
2022-12-07T03:41:03.495Z,5.60
2022-12-07T03:43:33.206Z,7.30
2022-12-07T03:46:40.019Z,9.73
2022-12-07T03:49:12.588Z,7.20
2022-12-07T03:51:56.724Z,6.65
2022-12-07T03:54:31.913Z,4.28
2022-12-07T03:56:59.605Z,5.57
2022-12-07T03:59:27.459Z,7.27
2022-12-07T04:01:57.005Z,10.18
2022-12-07T04:04:25.720Z,9.65
2022-12-07T04:06:52.137Z,5.32
2022-12-07T04:09:21.057Z,5.50
2022-12-07T04:11:47.483Z,8.47
2022-12-07T04:14:19.514Z,8.02
2022-12-07T04:16:55.027Z,7.53
2022-12-07T04:19:25.612Z,4.75
2022-12-07T04:21:52.031Z,7.80
2022-12-07T04:24:18.819Z,6.33
2022-12-07T04:26:46.274Z,6.88
2022-12-07T04:29:13.990Z,9.23
2022-12-07T04:31:40.570Z,8.95
2022-12-07T04:34:07.943Z,9.10
2022-12-07T04:36:34.761Z,8.70
2022-12-07T04:39:02.082Z,3.47
2022-12-07T04:41:29.136Z,5.80
2022-12-07T04:44:03.979Z,7.78
2022-12-07T04:46:32.190Z,6.25
2022-12-07T04:48:58.778Z,4.90
2022-12-07T04:51:29.990Z,4.88
2022-12-07T04:53:56.792Z,6.18
2022-12-07T04:56:24.622Z,4.60
2022-12-07T04:58:53.795Z,8.70
2022-12-07T05:01:21.134Z,6.33
2022-12-07T05:03:47.695Z,6.65
2022-12-07T05:06:14.977Z,6.32
2022-12-07T05:08:42.311Z,5.72
2022-12-07T05:11:09.835Z,3.67
2022-12-07T05:13:37.255Z,5.97
2022-12-07T05:16:04.153Z,7.95
2022-12-07T05:18:30.616Z,8.23
2022-12-07T05:20:57.143Z,4.40
2022-12-07T05:23:23.532Z,10.05
2022-12-07T05:25:50.194Z,4.90
2022-12-07T05:28:16.595Z,5.53
2022-12-07T05:30:42.979Z,4.70
2022-12-07T05:33:09.379Z,6.00
2022-12-07T05:35:36.284Z,6.60
2022-12-07T05:38:02.679Z,4.40
2022-12-07T05:40:29.079Z,7.20
2022-12-07T05:42:56.879Z,6.22
2022-12-07T05:45:26.413Z,5.20
2022-12-07T05:47:52.813Z,6.50
2022-12-07T05:50:19.240Z,6.67
2022-12-07T05:52:45.677Z,7.75
2022-12-07T05:55:12.060Z,6.22
2022-12-07T05:57:38.461Z,4.45
2022-12-07T06:00:06.109Z,4.53
2022-12-07T06:02:32.659Z,4.77
2022-12-07T06:04:59.139Z,5.03
2022-12-07T06:07:25.532Z,5.50
2022-12-07T06:09:51.945Z,7.00
2022-12-07T06:12:36.616Z,3.92
2022-12-07T06:15:03.188Z,8.13
2022-12-07T06:17:29.626Z,3.60
2022-12-07T06:19:56.075Z,6.15
2022-12-07T06:22:22.495Z,3.00
2022-12-07T06:24:48.928Z,5.30
2022-12-07T06:27:15.422Z,7.70
2022-12-07T06:29:41.854Z,6.25
2022-12-07T06:32:08.614Z,5.60
2022-12-07T06:34:35.362Z,6.78
2022-12-07T06:37:01.736Z,10.75
2022-12-07T06:39:29.653Z,3.87
2022-12-07T06:41:57.344Z,5.22
2022-12-07T06:44:24.736Z,7.57
2022-12-07T06:46:52.777Z,6.53
2022-12-07T06:49:22.397Z,8.25
2022-12-07T06:51:48.870Z,17.07
2022-12-07T06:54:16.460Z,9.60
2022-12-07T06:56:43.623Z,8.38
2022-12-07T06:59:10.186Z,8.98
2022-12-07T07:01:37.246Z,10.57
2022-12-07T07:04:03.942Z,7.70
2022-12-07T07:06:30.341Z,7.32
2022-12-07T07:08:56.770Z,7.72
2022-12-07T07:11:23.221Z,9.90
2022-12-07T07:13:49.683Z,8.15
2022-12-07T07:16:16.484Z,13.73
2022-12-07T07:18:42.967Z,7.70
2022-12-07T07:21:09.353Z,6.78
2022-12-07T07:23:35.776Z,7.22
2022-12-07T07:26:02.183Z,11.07
2022-12-07T07:28:28.551Z,6.87
2022-12-07T07:30:55.052Z,8.63
2022-12-07T07:33:21.528Z,8.32
2022-12-07T07:35:47.916Z,5.50
2022-12-07T07:38:14.318Z,6.55
2022-12-07T07:40:40.832Z,7.63
2022-12-07T07:43:07.253Z,7.50
2022-12-07T07:45:33.676Z,6.28
2022-12-07T07:48:00.141Z,7.93
2022-12-07T07:50:26.514Z,6.53
2022-12-07T07:52:53.184Z,11.83
2022-12-07T07:55:19.664Z,7.07
2022-12-07T07:57:51.166Z,10.02
2022-12-07T08:00:21.180Z,8.63
2022-12-07T08:02:47.779Z,7.60
2022-12-07T08:05:14.805Z,7.70
2022-12-07T08:07:41.996Z,8.70
2022-12-07T08:10:10.475Z,6.18
2022-12-07T08:12:58.820Z,5.18
2022-12-07T08:15:26.584Z,4.90
2022-12-07T08:17:52.991Z,5.10
2022-12-07T08:20:19.436Z,6.53
2022-12-07T08:22:45.866Z,4.28
2022-12-07T08:25:12.276Z,5.53
2022-12-07T08:27:38.728Z,4.45
2022-12-07T08:30:05.980Z,5.17
2022-12-07T08:32:32.623Z,4.93
2022-12-07T08:34:59.011Z,3.92
2022-12-07T08:37:25.402Z,3.63
2022-12-07T08:39:51.796Z,6.13
2022-12-07T08:42:18.179Z,5.40
2022-12-07T08:44:44.588Z,3.75
2022-12-07T08:47:11.432Z,4.75
2022-12-07T08:49:42.644Z,4.13
2022-12-07T08:52:09.138Z,8.27
2022-12-07T08:54:39.635Z,8.93
2022-12-07T08:57:07.232Z,7.50
2022-12-07T08:59:35.997Z,7.50
2022-12-07T09:02:02.663Z,6.82
2022-12-07T09:04:29.260Z,5.05
2022-12-07T09:06:57.228Z,4.37
2022-12-07T09:09:23.706Z,6.15
2022-12-07T09:11:50.123Z,4.53
2022-12-07T09:14:16.798Z,6.30
2022-12-07T09:16:43.231Z,4.32
2022-12-07T09:19:09.975Z,6.17
2022-12-07T09:21:36.435Z,5.93
2022-12-07T09:24:02.850Z,9.20
2022-12-07T09:26:29.332Z,7.30
2022-12-07T09:28:55.769Z,7.20
2022-12-07T09:31:24.360Z,6.97
2022-12-07T09:34:00.086Z,6.88
2022-12-07T09:36:28.169Z,4.90
2022-12-07T09:38:54.963Z,8.25
2022-12-07T09:41:22.947Z,6.47
2022-12-07T09:43:49.541Z,8.33
2022-12-07T09:46:18.987Z,7.45
2022-12-07T09:48:48.469Z,7.97
2022-12-07T09:51:25.637Z,7.53
2022-12-07T09:53:58.660Z,6.82
2022-12-07T09:56:25.671Z,7.70
2022-12-07T09:58:59.094Z,8.27
2022-12-07T10:01:25.615Z,6.10
2022-12-07T10:03:53.832Z,8.65
2022-12-07T10:06:20.558Z,8.80
2022-12-07T10:08:47.457Z,6.10
2022-12-07T10:11:15.849Z,5.55
2022-12-07T10:13:49.814Z,5.28
2022-12-07T10:16:25.441Z,8.23
2022-12-07T10:18:52.802Z,6.50
2022-12-07T10:21:21.757Z,8.23
2022-12-07T10:24:15.921Z,5.70
2022-12-07T10:26:48.451Z,9.05
2022-12-07T10:29:25.766Z,6.25
2022-12-07T10:32:04.826Z,7.68
2022-12-07T10:34:41.675Z,6.50
2022-12-07T10:37:18.242Z,7.15
2022-12-07T10:39:56.328Z,5.63
2022-12-07T10:42:26.610Z,6.68
2022-12-07T10:45:16.769Z,10.93
2022-12-07T10:48:07.073Z,7.60
2022-12-07T10:50:56.227Z,8.57
2022-12-07T10:53:37.056Z,6.10
2022-12-07T10:56:31.382Z,9.10
2022-12-07T10:59:23.740Z,4.68
2022-12-07T11:02:02.687Z,4.87
2022-12-07T11:04:42.266Z,6.13
2022-12-07T11:07:21.335Z,5.65
2022-12-07T11:10:13.957Z,5.85
2022-12-07T11:12:59.145Z,5.25
2022-12-07T11:15:50.404Z,5.87
2022-12-07T11:18:28.741Z,6.15
2022-12-07T11:21:15.565Z,8.13
2022-12-07T11:24:19.110Z,7.55
2022-12-07T11:27:12.204Z,7.05
2022-12-07T11:29:51.759Z,8.30
2022-12-07T11:32:49.958Z,4.05
2022-12-07T11:35:25.643Z,10.70
2022-12-07T11:37:59.200Z,9.20
2022-12-07T11:40:37.466Z,6.60
2022-12-07T11:43:22.355Z,7.13
2022-12-07T11:45:57.999Z,8.18
2022-12-07T11:48:39.524Z,7.43
2022-12-07T11:51:08.814Z,5.90
2022-12-07T11:53:58.668Z,5.70
2022-12-07T11:56:28.265Z,4.37
2022-12-07T11:59:00.147Z,7.88
2022-12-07T12:01:34.395Z,6.47
2022-12-07T12:04:00.724Z,7.25
2022-12-07T12:06:27.156Z,6.82
2022-12-07T12:15:38.539Z,5.50
2022-12-07T12:18:21.043Z,3.10
2022-12-07T12:20:57.346Z,4.63
2022-12-07T12:23:35.059Z,4.87
2022-12-07T12:26:04.946Z,4.60
2022-12-07T12:29:00.188Z,3.15
2022-12-07T12:31:37.530Z,3.75
2022-12-07T12:34:25.508Z,4.00
2022-12-07T12:36:51.999Z,6.23
2022-12-07T12:39:20.245Z,2.55
2022-12-07T12:41:49.386Z,4.03
2022-12-07T12:44:15.736Z,2.45
2022-12-07T12:46:50.763Z,3.00
2022-12-07T12:49:17.311Z,3.70
2022-12-07T12:52:05.304Z,3.88
2022-12-07T12:54:53.102Z,3.00
2022-12-07T12:57:31.745Z,2.45
2022-12-07T13:00:00.556Z,7.30
2022-12-07T13:02:30.103Z,2.23
2022-12-07T13:05:08.917Z,3.03
2022-12-07T13:07:54.283Z,3.40
2022-12-07T13:10:29.592Z,7.25
2022-12-07T13:13:02.296Z,4.80
2022-12-07T13:15:55.075Z,5.83
2022-12-07T13:18:33.529Z,3.80
2022-12-07T13:21:05.856Z,6.13
2022-12-07T13:23:39.700Z,6.07
2022-12-07T13:26:31.479Z,6.15
2022-12-07T13:29:24.218Z,5.03
2022-12-07T13:31:53.754Z,6.38
2022-12-07T13:34:36.160Z,5.28
2022-12-07T13:37:16.694Z,5.28
2022-12-07T13:39:53.095Z,4.93
2022-12-07T13:42:34.380Z,6.63
2022-12-07T13:45:18.659Z,4.55
2022-12-07T13:47:52.976Z,6.18
2022-12-07T13:50:31.696Z,8.15
2022-12-07T13:53:00.593Z,8.57
2022-12-07T13:55:28.587Z,8.53
2022-12-07T13:57:56.188Z,7.18
2022-12-07T14:00:26.120Z,4.35
2022-12-07T14:03:25.957Z,4.35
2022-12-07T14:06:15.857Z,5.00
2022-12-07T14:08:43.711Z,4.57
2022-12-07T14:11:20.316Z,3.75
2022-12-07T14:13:58.216Z,5.03
2022-12-07T14:16:31.699Z,4.05
2022-12-07T14:19:00.982Z,3.88
2022-12-07T14:21:32.823Z,4.73
2022-12-07T14:24:17.462Z,3.13
2022-12-07T14:26:46.067Z,3.38
2022-12-07T14:29:27.926Z,4.50
2022-12-07T14:31:55.392Z,4.22
2022-12-07T14:34:22.818Z,2.97
2022-12-07T14:36:49.399Z,3.50
2022-12-07T14:39:16.186Z,3.92
2022-12-07T14:41:51.520Z,2.67
2022-12-07T14:44:23.885Z,3.13
2022-12-07T14:49:39.666Z,2.67
2022-12-07T14:54:59.393Z,3.20
2022-12-07T14:57:25.820Z,3.58
2022-12-07T14:59:52.262Z,6.40
2022-12-07T15:02:18.681Z,4.13
2022-12-07T15:04:45.197Z,4.32
2022-12-07T15:07:20.900Z,4.05
2022-12-07T15:09:47.958Z,5.10
2022-12-07T15:12:14.456Z,4.37
2022-12-07T15:14:41.004Z,3.72
2022-12-07T15:17:09.626Z,5.22
2022-12-07T15:19:39.517Z,5.22
2022-12-07T15:22:06.024Z,3.45
2022-12-07T15:24:32.457Z,4.93
2022-12-07T15:26:58.836Z,4.38
2022-12-07T15:29:25.248Z,2.92
2022-12-07T15:31:57.567Z,3.55
2022-12-07T15:34:26.571Z,4.43
2022-12-07T15:36:53.108Z,3.70
2022-12-07T15:39:19.619Z,6.75
2022-12-07T15:41:46.090Z,3.35
2022-12-07T15:44:32.652Z,4.80
2022-12-07T15:46:59.155Z,4.85
2022-12-07T15:49:26.036Z,3.77
2022-12-07T15:51:52.505Z,4.97
2022-12-07T15:54:22.676Z,5.72
2022-12-07T15:56:49.193Z,4.28
2022-12-07T15:59:16.304Z,6.53
2022-12-07T16:01:42.958Z,4.67
2022-12-07T16:04:09.514Z,7.25
2022-12-07T16:06:36.028Z,5.32
2022-12-07T16:09:02.944Z,6.43
2022-12-07T16:11:29.832Z,6.38
2022-12-07T16:13:56.301Z,4.13
2022-12-07T16:16:23.548Z,5.90
2022-12-07T16:18:51.186Z,6.95
2022-12-07T16:21:24.686Z,3.63
2022-12-07T16:23:51.472Z,4.15
2022-12-07T16:26:20.534Z,4.23
2022-12-07T16:28:50.796Z,5.97
2022-12-07T16:31:19.997Z,5.00
2022-12-07T16:33:47.250Z,3.78
2022-12-07T16:36:28.884Z,3.75
2022-12-07T16:39:01.360Z,4.83
2022-12-07T16:41:28.444Z,4.57
2022-12-07T16:43:54.893Z,4.93
2022-12-07T16:46:21.390Z,4.50
2022-12-07T16:48:48.048Z,3.72
2022-12-07T16:51:15.280Z,5.70
2022-12-07T16:53:43.421Z,4.95
2022-12-07T16:56:16.111Z,3.80
2022-12-07T16:58:43.618Z,3.47
2022-12-07T17:01:15.047Z,7.28
2022-12-07T17:03:41.620Z,5.50
2022-12-07T17:06:16.440Z,5.78
2022-12-07T17:08:43.317Z,6.03
2022-12-07T17:11:15.382Z,5.43
2022-12-07T17:14:00.815Z,7.38
2022-12-07T17:16:27.435Z,6.00
2022-12-07T17:18:53.912Z,7.47
2022-12-07T17:21:20.542Z,6.38
2022-12-07T17:23:47.264Z,6.18
2022-12-07T17:26:17.315Z,5.45
2022-12-07T17:28:44.242Z,4.43
2022-12-07T17:31:12.365Z,5.45
2022-12-07T17:33:39.172Z,4.97
2022-12-07T17:36:19.007Z,5.40
2022-12-07T17:38:45.840Z,5.03
2022-12-07T17:41:34.634Z,4.73
2022-12-07T17:44:05.982Z,5.28
2022-12-07T17:46:32.984Z,5.13
2022-12-07T17:49:00.148Z,5.43
2022-12-07T17:51:45.237Z,5.00
2022-12-07T17:54:12.795Z,3.67
2022-12-07T17:56:39.289Z,5.75
2022-12-07T17:59:06.121Z,4.13
2022-12-07T18:01:34.915Z,4.18
2022-12-07T18:04:01.893Z,5.70
2022-12-07T18:06:28.302Z,4.17
2022-12-07T18:08:54.863Z,6.78
2022-12-07T18:11:21.359Z,5.43
2022-12-07T18:13:47.744Z,6.95
2022-12-07T18:16:21.119Z,5.50
2022-12-07T18:18:52.568Z,6.27
2022-12-07T18:21:24.065Z,6.72
2022-12-07T18:23:53.479Z,4.97
2022-12-07T18:26:22.016Z,6.57
2022-12-07T18:28:48.443Z,3.75
2022-12-07T18:31:16.081Z,5.90
2022-12-07T18:33:44.111Z,6.80
2022-12-07T18:36:11.024Z,6.18
2022-12-07T18:38:37.936Z,4.85
2022-12-07T18:41:07.733Z,5.63
2022-12-07T18:43:34.514Z,5.30
2022-12-07T18:46:00.987Z,3.80
2022-12-07T18:48:27.614Z,5.50
2022-12-07T18:51:04.858Z,6.60
2022-12-07T18:53:32.082Z,5.88
2022-12-07T18:56:02.771Z,5.67
2022-12-07T18:58:29.264Z,6.18
2022-12-07T19:00:56.653Z,6.15
2022-12-07T19:03:27.459Z,5.72
2022-12-07T19:05:57.890Z,4.57
2022-12-07T19:08:25.484Z,4.93
2022-12-07T19:10:52.405Z,5.40
2022-12-07T19:13:18.992Z,6.57
2022-12-07T19:15:45.486Z,6.03
2022-12-07T19:18:11.889Z,6.20
2022-12-07T19:20:38.992Z,5.80
2022-12-07T19:23:05.408Z,4.85
2022-12-07T19:25:31.837Z,6.68
2022-12-07T19:27:58.293Z,7.45
2022-12-07T19:30:24.690Z,4.40
2022-12-07T19:32:51.163Z,6.93
2022-12-07T19:35:17.657Z,6.05
2022-12-07T19:37:44.041Z,6.05
2022-12-07T19:40:10.980Z,6.07
2022-12-07T19:42:37.475Z,5.05
2022-12-07T19:45:04.549Z,6.13
2022-12-07T19:47:31.163Z,6.47
2022-12-07T19:49:57.575Z,6.10
2022-12-07T19:52:24.047Z,6.57
2022-12-07T19:54:50.436Z,5.38
2022-12-07T19:57:17.814Z,5.97
2022-12-07T19:59:44.288Z,6.75
2022-12-07T20:02:13.558Z,5.80
2022-12-07T20:04:40.310Z,8.90
2022-12-07T20:07:07.313Z,7.78
2022-12-07T20:09:33.842Z,7.13
2022-12-07T20:12:18.652Z,8.05
2022-12-07T20:14:45.053Z,6.68
2022-12-07T20:17:11.967Z,7.82
2022-12-07T20:19:39.119Z,6.10
2022-12-07T20:22:05.719Z,7.30
2022-12-07T20:24:34.408Z,7.63
2022-12-07T20:27:01.005Z,9.77
2022-12-07T20:29:27.398Z,9.43
2022-12-07T20:31:55.338Z,8.88
2022-12-07T20:34:21.816Z,8.07
2022-12-07T20:36:48.759Z,9.93
2022-12-07T20:39:15.640Z,10.02
2022-12-07T20:42:01.128Z,11.88
2022-12-07T20:44:27.829Z,10.65
2022-12-07T20:46:54.558Z,8.83
2022-12-07T20:49:21.383Z,9.52
2022-12-07T20:51:48.045Z,12.32
2022-12-07T20:54:15.176Z,9.65
2022-12-07T20:56:42.589Z,10.20
2022-12-07T20:59:12.848Z,12.27
2022-12-07T21:01:39.951Z,9.27
2022-12-07T21:04:06.864Z,9.50
2022-12-07T21:06:33.326Z,11.20
2022-12-07T21:09:00.842Z,10.70
2022-12-07T21:11:29.482Z,9.87
2022-12-07T21:13:56.056Z,10.02
2022-12-07T21:16:25.840Z,9.68
2022-12-07T21:18:53.650Z,10.18
2022-12-07T21:21:20.494Z,12.23
2022-12-07T21:23:49.444Z,11.87
2022-12-07T21:26:21.220Z,10.43
2022-12-07T21:28:48.534Z,13.45
2022-12-07T21:31:15.918Z,9.40
2022-12-07T21:33:44.251Z,12.68
2022-12-07T21:36:19.531Z,13.77
2022-12-07T21:38:46.599Z,9.93
2022-12-07T21:41:18.587Z,10.07
2022-12-07T21:43:46.046Z,10.55
2022-12-07T21:46:13.392Z,12.48
2022-12-07T21:48:40.749Z,9.10
2022-12-07T21:51:13.091Z,10.45
2022-12-07T21:53:41.800Z,9.05
2022-12-07T21:56:18.846Z,8.95
2022-12-07T21:58:45.803Z,8.35
2022-12-07T22:01:17.675Z,7.23
2022-12-07T22:03:44.296Z,9.85
2022-12-07T22:06:15.826Z,9.18
2022-12-07T22:08:43.180Z,8.05
2022-12-07T22:11:10.893Z,6.38
2022-12-07T22:13:57.579Z,9.17
2022-12-07T22:16:24.542Z,6.75
2022-12-07T22:18:51.357Z,8.45
2022-12-07T22:21:17.790Z,8.90
2022-12-07T22:23:44.208Z,8.10
2022-12-07T22:26:12.725Z,8.30
2022-12-07T22:28:39.931Z,5.78
2022-12-07T22:31:08.909Z,6.75
2022-12-07T22:33:35.956Z,10.60
2022-12-07T22:36:03.052Z,7.25
2022-12-07T22:38:29.608Z,6.23
2022-12-07T22:40:57.093Z,8.02
2022-12-07T22:43:24.167Z,8.88
2022-12-07T22:45:58.877Z,6.80
2022-12-07T22:48:26.614Z,10.65
2022-12-07T22:50:54.759Z,6.40
2022-12-07T22:53:24.835Z,7.47
2022-12-07T22:55:51.659Z,9.88
2022-12-07T22:58:18.556Z,7.63
2022-12-07T23:00:45.080Z,7.50
2022-12-07T23:03:11.913Z,8.13
2022-12-07T23:05:46.623Z,7.60
2022-12-07T23:08:13.557Z,8.27
2022-12-07T23:10:48.616Z,8.98
2022-12-07T23:13:32.726Z,7.60
2022-12-07T23:16:17.400Z,7.93
2022-12-07T23:18:43.882Z,7.20
2022-12-07T23:21:10.292Z,8.63
2022-12-07T23:23:36.757Z,5.63
2022-12-07T23:26:08.955Z,6.63
2022-12-07T23:28:36.884Z,7.03
2022-12-07T23:31:08.776Z,8.73
2022-12-07T23:33:35.328Z,6.90
2022-12-07T23:36:12.640Z,5.10
2022-12-07T23:38:40.404Z,5.60
2022-12-07T23:41:09.088Z,6.20
2022-12-07T23:43:36.773Z,6.35
2022-12-07T23:46:04.165Z,5.70
2022-12-07T23:48:30.620Z,6.97
2022-12-07T23:50:58.424Z,5.63
2022-12-07T23:53:28.437Z,7.00
2022-12-07T23:55:55.338Z,5.80
2022-12-07T23:58:21.737Z,4.10
